Algowood — VCTD — position and weather

sailwx.info

Track history (hours):
 
Tides and Currents Weather Stations Pressure Air Temp Water Temp Dewpoint Dewpoint Depression Visibility Wind Speed Wind Dir Waves Ship Positions

Algowood

Last reported at 2016-Apr-29 04:10 UTC. Time now 2016-Apr-30 05:20 UTC.
Position N 45°02' W 086°22'.

Length 223 m; draft 8.1 m.

Type: Cargo ship. MMSI: 316001802.

Date/timePositionNaut miles runAvg speedWind from/ knotsBaromVisibWave heightAir tempDewpointWater temp
2016-Apr-29 04:10N 45°02' W 086°22'711.1
2016-Apr-29 03:33N 45°08' W 086°20'1111.3
2016-Apr-29 02:33N 45°19' W 086°15'1111.2
2016-Apr-29 01:33N 45°30' W 086°11'1110.8
2016-Apr-29 00:33N 45°40' W 086°04'1111.2
2016-Apr-28 23:33N 45°47' W 085°52'1111.4
2016-Apr-28 22:33N 45°52' W 085°38'1110.9
2016-Apr-28 21:33N 45°53' W 085°22'1111.4
2016-Apr-28 20:33N 45°51' W 085°06'1211.5
2016-Apr-28 19:33N 45°50' W 084°49'1110.6
2016-Apr-28 18:33N 45°51' W 084°34'1111.0
2016-Apr-28 17:33N 45°50' W 084°19'1111.0
2016-Apr-28 16:33N 45°46' W 084°04'262 6.5
2016-Apr-27 00:29N 42°32' W 079°59'45 5.4
2016-Apr-26 16:11N 43°01' W 079°13'4 5.9
2016-Apr-26 15:33N 43°05' W 079°13'3 2.5
2016-Apr-26 14:34N 43°07' W 079°12'1 0.5
2016-Apr-26 13:33N 43°08' W 079°12'0 0.2
2016-Apr-26 12:34N 43°08' W 079°12'1 0.8
2016-Apr-26 11:33N 43°09' W 079°12'1 1.0
2016-Apr-26 10:33N 43°10' W 079°12'2 1.7
2016-Apr-26 09:33N 43°12' W 079°12'1 1.0
2016-Apr-26 08:34N 43°13' W 079°13'1 0.9
2016-Apr-26 07:33N 43°13' W 079°13'6 6.4
2016-Apr-26 06:33N 43°19' W 079°10'1111.2
2016-Apr-26 05:34N 43°29' W 079°02'11910.7
2016-Apr-25 18:31N 44°04' W 076°25'113 6.7
2016-Apr-25 01:33N 45°12' W 074°18'12 8.5
2016-Apr-25 00:10N 45°14' W 074°01'5 8.3
2016-Apr-24 23:32N 45°17' W 073°56'2 1.7
2016-Apr-24 22:34N 45°19' W 073°55'1 1.4
2016-Apr-24 21:33N 45°20' W 073°54'9 8.5
2016-Apr-24 20:33N 45°24' W 073°44'6 5.5
2016-Apr-24 19:31N 45°24' W 073°35'2 1.9
2016-Apr-24 18:21N 45°24' W 073°32'10 3.5
2016-Apr-24 15:27N 45°35' W 073°30'7 7.7
2016-Apr-24 14:33N 45°41' W 073°27'6 6.3
2016-Apr-24 13:33N 45°46' W 073°22'7 7.1
2016-Apr-24 12:33N 45°52' W 073°16'8 8.1
2016-Apr-24 11:33N 45°59' W 073°11'8 7.7
2016-Apr-24 10:33N 46°04' W 073°03'9 8.8
2016-Apr-24 09:33N 46°11' W 072°55'6 0.2
2016-Apr-22 16:26N 46°14' W 072°47'1112.3
2016-Apr-22 15:33N 46°07' W 072°58'1211.9
2016-Apr-22 14:34N 45°59' W 073°11'1313.3
2016-Apr-22 13:33N 45°47' W 073°21'1212.4
2016-Apr-22 12:33N 45°37' W 073°30'7 6.3
2016-Apr-22 11:25N 45°30' W 073°31'2 1.9
2016-Apr-22 10:33N 45°28' W 073°30'4 4.4
2016-Apr-22 09:33N 45°24' W 073°34'1 1.4
2016-Apr-22 08:33N 45°24' W 073°36'0 0.0
2016-Apr-22 07:33N 45°24' W 073°36'0 0.0
2016-Apr-22 06:34N 45°24' W 073°36'0 0.0
2016-Apr-22 05:34N 45°24' W 073°36'0 0.0
2016-Apr-22 04:33N 45°24' W 073°36'1 0.8
2016-Apr-22 03:34N 45°24' W 073°37'5 4.6
2016-Apr-22 02:34N 45°24' W 073°43'10 9.5
2016-Apr-22 01:33N 45°19' W 073°55'1 1.2
2016-Apr-22 00:33N 45°18' W 073°56'2 2.0
2016-Apr-21 23:33N 45°16' W 073°57'8 3.7
2016-Apr-21 21:16N 45°14' W 074°08'3 0.5
2016-Apr-21 15:16N 45°13' W 074°04'0 0.0
2016-Apr-21 14:21N 45°13' W 074°04'11363.2
2016-Apr-21 12:33N 44°12' W 076°17'0 0.0
2016-Apr-21 11:34N 44°12' W 076°17'0 0.0
2016-Apr-21 10:33N 44°12' W 076°17'0 0.0
2016-Apr-21 09:34N 44°12' W 076°17'0 0.0
2016-Apr-21 08:34N 44°12' W 076°17'0 0.0
2016-Apr-21 07:34N 44°12' W 076°17'0 0.0
2016-Apr-21 06:34N 44°12' W 076°17'0 0.0
2016-Apr-21 05:34N 44°12' W 076°17'0 0.0
2016-Apr-21 04:34N 44°12' W 076°17'0 0.0
2016-Apr-21 03:34N 44°12' W 076°17'0 0.0
2016-Apr-21 02:33N 44°12' W 076°17'0 0.0
2016-Apr-21 01:33N 44°12' W 076°17'0 0.0
2016-Apr-21 00:34N 44°12' W 076°17'8 5.9
2016-Apr-20 23:13N 44°06' W 076°24'11610.9
2016-Apr-20 12:33N 43°23' W 078°53'1111.3
2016-Apr-20 11:33N 43°19' W 079°08'7 6.7
2016-Apr-20 10:33N 43°13' W 079°13'1 0.7
2016-Apr-20 09:33N 43°12' W 079°13'1 0.9
2016-Apr-20 08:34N 43°12' W 079°12'2 2.3
2016-Apr-20 07:33N 43°09' W 079°12'1 0.9
2016-Apr-20 06:33N 43°08' W 079°12'0 0.3
2016-Apr-20 05:34N 43°08' W 079°12'0 0.4
2016-Apr-20 04:33N 43°08' W 079°12'0 0.4
2016-Apr-20 03:33N 43°07' W 079°12'3 2.9
2016-Apr-20 02:33N 43°04' W 079°13'33 6.6
2016-Apr-19 21:33N 42°37' W 079°39'1111.2
2016-Apr-19 20:33N 42°31' W 079°51'1111.1
2016-Apr-19 19:32N 42°25' W 080°05'  
Track history (hours):
 
Tides and Currents Weather Stations Pressure Air Temp Water Temp Dewpoint Dewpoint Depression Visibility Wind Speed Wind Dir Waves Ship Positions

Algowood

Last reported at 2016-Apr-29 04:10 UTC. Time now 2016-Apr-30 05:20 UTC.
Position N 45°02' W 086°22'.

Length 223 m; draft 8.1 m.

Type: Cargo ship. MMSI: 316001802.

Date/timePositionNaut miles runAvg speedWind from/ knotsBaromVisibWave heightAir tempDewpointWater temp
2016-Apr-29 04:10N 45°02' W 086°22'711.1
2016-Apr-29 03:33N 45°08' W 086°20'1111.3
2016-Apr-29 02:33N 45°19' W 086°15'1111.2
2016-Apr-29 01:33N 45°30' W 086°11'1110.8
2016-Apr-29 00:33N 45°40' W 086°04'1111.2
2016-Apr-28 23:33N 45°47' W 085°52'1111.4
2016-Apr-28 22:33N 45°52' W 085°38'1110.9
2016-Apr-28 21:33N 45°53' W 085°22'1111.4
2016-Apr-28 20:33N 45°51' W 085°06'1211.5
2016-Apr-28 19:33N 45°50' W 084°49'1110.6
2016-Apr-28 18:33N 45°51' W 084°34'1111.0
2016-Apr-28 17:33N 45°50' W 084°19'1111.0
2016-Apr-28 16:33N 45°46' W 084°04'262 6.5
2016-Apr-27 00:29N 42°32' W 079°59'45 5.4
2016-Apr-26 16:11N 43°01' W 079°13'4 5.9
2016-Apr-26 15:33N 43°05' W 079°13'3 2.5
2016-Apr-26 14:34N 43°07' W 079°12'1 0.5
2016-Apr-26 13:33N 43°08' W 079°12'0 0.2
2016-Apr-26 12:34N 43°08' W 079°12'1 0.8
2016-Apr-26 11:33N 43°09' W 079°12'1 1.0
2016-Apr-26 10:33N 43°10' W 079°12'2 1.7
2016-Apr-26 09:33N 43°12' W 079°12'1 1.0
2016-Apr-26 08:34N 43°13' W 079°13'1 0.9
2016-Apr-26 07:33N 43°13' W 079°13'6 6.4
2016-Apr-26 06:33N 43°19' W 079°10'1111.2
2016-Apr-26 05:34N 43°29' W 079°02'11910.7
2016-Apr-25 18:31N 44°04' W 076°25'113 6.7
2016-Apr-25 01:33N 45°12' W 074°18'12 8.5
2016-Apr-25 00:10N 45°14' W 074°01'5 8.3
2016-Apr-24 23:32N 45°17' W 073°56'2 1.7
2016-Apr-24 22:34N 45°19' W 073°55'1 1.4
2016-Apr-24 21:33N 45°20' W 073°54'9 8.5
2016-Apr-24 20:33N 45°24' W 073°44'6 5.5
2016-Apr-24 19:31N 45°24' W 073°35'2 1.9
2016-Apr-24 18:21N 45°24' W 073°32'10 3.5
2016-Apr-24 15:27N 45°35' W 073°30'7 7.7
2016-Apr-24 14:33N 45°41' W 073°27'6 6.3
2016-Apr-24 13:33N 45°46' W 073°22'7 7.1
2016-Apr-24 12:33N 45°52' W 073°16'8 8.1
2016-Apr-24 11:33N 45°59' W 073°11'8 7.7
2016-Apr-24 10:33N 46°04' W 073°03'9 8.8
2016-Apr-24 09:33N 46°11' W 072°55'6 0.2
2016-Apr-22 16:26N 46°14' W 072°47'1112.3
2016-Apr-22 15:33N 46°07' W 072°58'1211.9
2016-Apr-22 14:34N 45°59' W 073°11'1313.3
2016-Apr-22 13:33N 45°47' W 073°21'1212.4
2016-Apr-22 12:33N 45°37' W 073°30'7 6.3
2016-Apr-22 11:25N 45°30' W 073°31'2 1.9
2016-Apr-22 10:33N 45°28' W 073°30'4 4.4
2016-Apr-22 09:33N 45°24' W 073°34'1 1.4
2016-Apr-22 08:33N 45°24' W 073°36'0 0.0
2016-Apr-22 07:33N 45°24' W 073°36'0 0.0
2016-Apr-22 06:34N 45°24' W 073°36'0 0.0
2016-Apr-22 05:34N 45°24' W 073°36'0 0.0
2016-Apr-22 04:33N 45°24' W 073°36'1 0.8
2016-Apr-22 03:34N 45°24' W 073°37'5 4.6
2016-Apr-22 02:34N 45°24' W 073°43'10 9.5
2016-Apr-22 01:33N 45°19' W 073°55'1 1.2
2016-Apr-22 00:33N 45°18' W 073°56'2 2.0
2016-Apr-21 23:33N 45°16' W 073°57'8 3.7
2016-Apr-21 21:16N 45°14' W 074°08'3 0.5
2016-Apr-21 15:16N 45°13' W 074°04'0 0.0
2016-Apr-21 14:21N 45°13' W 074°04'11363.2
2016-Apr-21 12:33N 44°12' W 076°17'0 0.0
2016-Apr-21 11:34N 44°12' W 076°17'0 0.0
2016-Apr-21 10:33N 44°12' W 076°17'0 0.0
2016-Apr-21 09:34N 44°12' W 076°17'0 0.0
2016-Apr-21 08:34N 44°12' W 076°17'0 0.0
2016-Apr-21 07:34N 44°12' W 076°17'0 0.0
2016-Apr-21 06:34N 44°12' W 076°17'0 0.0
2016-Apr-21 05:34N 44°12' W 076°17'0 0.0
2016-Apr-21 04:34N 44°12' W 076°17'0 0.0
2016-Apr-21 03:34N 44°12' W 076°17'0 0.0
2016-Apr-21 02:33N 44°12' W 076°17'0 0.0
2016-Apr-21 01:33N 44°12' W 076°17'0 0.0
2016-Apr-21 00:34N 44°12' W 076°17'8 5.9
2016-Apr-20 23:13N 44°06' W 076°24'11610.9
2016-Apr-20 12:33N 43°23' W 078°53'1111.3
2016-Apr-20 11:33N 43°19' W 079°08'7 6.7
2016-Apr-20 10:33N 43°13' W 079°13'1 0.7
2016-Apr-20 09:33N 43°12' W 079°13'1 0.9
2016-Apr-20 08:34N 43°12' W 079°12'2 2.3
2016-Apr-20 07:33N 43°09' W 079°12'1 0.9
2016-Apr-20 06:33N 43°08' W 079°12'0 0.3
2016-Apr-20 05:34N 43°08' W 079°12'0 0.4
2016-Apr-20 04:33N 43°08' W 079°12'0 0.4
2016-Apr-20 03:33N 43°07' W 079°12'3 2.9
2016-Apr-20 02:33N 43°04' W 079°13'33 6.6
2016-Apr-19 21:33N 42°37' W 079°39'1111.2
2016-Apr-19 20:33N 42°31' W 079°51'1111.1
2016-Apr-19 19:32N 42°25' W 080°05'  

Dump ship's entire track history